Time;durP1;ratioP1;P1;durP2;ratioP2;P2;SDS_P1;SDS_P2;PMS_P1;PMS_P2;Temp;Humidity;BMP_temperature;BMP_pressure;BME280_temperature;BME280_humidity;BME280_pressure;Samples;Min_cycle;Max_cycle;Signal;HPM_P1;HPM_P2
2022/08/02 00:00:59;;;;;;;7.77;4.27;;;15.30;99.90;;;;;;5112501;28;20648;-68
2022/08/02 00:03:26;;;;;;;4.97;3.67;;;15.20;99.90;;;;;;5112880;28;20203;-68
2022/08/02 00:05:53;;;;;;;6.50;4.13;;;15.20;99.90;;;;;;5112303;28;20252;-67
2022/08/02 00:08:20;;;;;;;7.03;4.13;;;15.10;99.90;;;;;;5112486;28;20207;-67
2022/08/02 00:10:48;;;;;;;8.93;4.40;;;15.10;99.90;;;;;;5112488;28;20224;-68
2022/08/02 00:13:14;;;;;;;7.10;4.30;;;15.00;99.90;;;;;;5112426;28;20567;-68
2022/08/02 00:15:41;;;;;;;7.17;3.80;;;15.00;99.90;;;;;;5112733;28;20226;-68
2022/08/02 00:18:08;;;;;;;6.17;3.80;;;15.00;99.90;;;;;;5112426;28;20211;-68
2022/08/02 00:20:35;;;;;;;6.27;4.10;;;15.00;99.90;;;;;;5112573;28;20284;-68
2022/08/02 00:23:02;;;;;;;8.90;3.90;;;15.00;99.90;;;;;;5112425;28;20207;-67
2022/08/02 00:25:28;;;;;;;9.93;4.00;;;15.00;99.90;;;;;;5112502;28;20248;-67
2022/08/02 00:27:56;;;;;;;6.90;4.53;;;14.90;99.90;;;;;;5112014;28;20211;-68
2022/08/02 00:30:23;;;;;;;7.53;4.60;;;14.90;99.90;;;;;;5112503;28;20219;-68
2022/08/02 00:32:50;;;;;;;5.27;4.13;;;14.90;99.90;;;;;;5112681;28;20203;-68
2022/08/02 00:35:16;;;;;;;9.87;4.63;;;14.90;99.90;;;;;;5112460;28;20220;-68
2022/08/02 00:37:44;;;;;;;4.23;3.83;;;14.80;99.90;;;;;;5112087;28;20207;-68
2022/08/02 00:40:11;;;;;;;6.53;4.03;;;14.80;99.90;;;;;;5111957;28;20284;-68
2022/08/02 00:42:38;;;;;;;5.37;3.80;;;14.80;99.90;;;;;;5112517;28;20203;-68
2022/08/02 00:45:07;;;;;;;6.47;3.57;;;14.80;99.90;;;;;;5112547;28;20211;-68
2022/08/02 00:47:34;;;;;;;8.30;3.90;;;14.70;99.90;;;;;;5112085;28;20276;-68
2022/08/02 00:50:01;;;;;;;9.13;4.00;;;14.70;99.90;;;;;;5112496;28;20227;-68
2022/08/02 00:52:28;;;;;;;6.80;3.87;;;14.70;99.90;;;;;;5112205;28;20248;-68
2022/08/02 00:54:55;;;;;;;10.13;4.60;;;14.70;99.90;;;;;;5112036;28;20226;-67
2022/08/02 00:57:21;;;;;;;7.97;4.33;;;14.70;99.90;;;;;;5112019;28;20208;-68
2022/08/02 00:59:48;;;;;;;6.47;4.10;;;14.70;99.90;;;;;;5112141;28;20233;-68
2022/08/02 01:02:16;;;;;;;6.40;4.73;;;14.60;99.90;;;;;;5112128;28;20687;-68
2022/08/02 01:04:43;;;;;;;11.47;4.30;;;14.70;99.90;;;;;;5111985;28;20208;-69
2022/08/02 01:07:09;;;;;;;6.93;4.23;;;14.60;99.90;;;;;;5112120;28;20203;-68
2022/08/02 01:09:36;;;;;;;5.17;4.10;;;14.60;99.90;;;;;;5112119;28;20199;-68
2022/08/02 01:12:03;;;;;;;7.57;4.33;;;14.50;99.90;;;;;;5112156;28;20693;-67
2022/08/02 01:14:30;;;;;;;6.13;4.17;;;14.50;99.90;;;;;;5112110;28;20639;-68
2022/08/02 01:17:02;;;;;;;9.93;4.87;;;14.60;99.90;;;;;;5111779;28;20208;-69
2022/08/02 01:19:38;;;;;;;6.00;4.60;;;14.50;99.90;;;;;;5111860;28;20223;-68
2022/08/02 01:22:31;;;;;;;9.67;4.53;;;14.60;99.90;;;;;;5114160;28;20204;-68
2022/08/02 01:25:33;;;;;;;4.60;4.10;;;14.60;99.90;;;;;;5115926;28;20265;-68
2022/08/02 01:28:28;;;;;;;6.37;4.20;;;14.50;99.90;;;;;;5115404;28;20207;-68
2022/08/02 01:31:00;;;;;;;7.33;4.30;;;14.50;99.90;;;;;;5115876;28;20227;-68
2022/08/02 01:33:33;;;;;;;6.47;4.77;;;14.50;99.90;;;;;;5115885;28;20203;-68
2022/08/02 01:36:02;;;;;;;6.57;4.70;;;14.50;99.90;;;;;;5115225;28;20235;-68
2022/08/02 01:38:34;;;;;;;9.27;4.50;;;14.50;99.90;;;;;;5115498;28;20207;-68
2022/08/02 01:41:03;;;;;;;8.93;4.97;;;14.50;99.90;;;;;;5115634;28;20223;-68
2022/08/02 01:43:33;;;;;;;8.93;4.77;;;14.50;99.90;;;;;;5115503;28;20356;-67
2022/08/02 01:46:01;;;;;;;9.50;4.70;;;14.50;99.90;;;;;;5114887;27;20702;-68
2022/08/02 01:48:29;;;;;;;9.90;4.77;;;14.50;99.90;;;;;;5115474;28;20199;-68
2022/08/02 01:50:58;;;;;;;6.10;4.50;;;14.50;99.90;;;;;;5115194;28;20231;-68
2022/08/02 01:53:27;;;;;;;11.63;4.90;;;14.50;99.90;;;;;;5115010;27;20669;-68
2022/08/02 01:55:55;;;;;;;7.83;4.47;;;14.50;99.90;;;;;;5114896;28;20219;-68
2022/08/02 01:58:25;;;;;;;9.50;5.10;;;14.50;99.90;;;;;;5115185;28;20630;-67
2022/08/02 02:00:57;;;;;;;9.03;4.80;;;14.50;99.90;;;;;;5115043;28;20223;-68
2022/08/02 02:03:25;;;;;;;8.17;5.47;;;14.50;99.90;;;;;;5115086;27;20738;-68
2022/08/02 02:05:55;;;;;;;8.63;6.10;;;14.50;99.90;;;;;;5114758;28;20200;-66
2022/08/02 02:08:25;;;;;;;11.70;6.20;;;14.50;99.90;;;;;;5115118;28;20204;-68
2022/08/02 02:10:54;;;;;;;9.67;6.30;;;14.60;99.90;;;;;;5114794;28;20220;-68
2022/08/02 02:13:21;;;;;;;10.13;6.60;;;14.60;99.90;;;;;;5114752;28;20626;-67
2022/08/02 02:15:50;;;;;;;16.40;6.37;;;14.60;99.90;;;;;;5114830;28;20220;-68
2022/08/02 02:18:22;;;;;;;9.13;5.60;;;14.50;99.90;;;;;;5114256;28;20212;-67
2022/08/02 02:20:50;;;;;;;9.77;5.50;;;14.50;99.90;;;;;;5114795;28;20292;-68
2022/08/02 02:23:18;;;;;;;9.40;5.53;;;14.50;99.90;;;;;;5114511;28;20207;-68
2022/08/02 02:25:45;;;;;;;9.23;5.77;;;14.50;99.90;;;;;;5114682;28;20200;-68
2022/08/02 02:28:15;;;;;;;11.50;5.43;;;14.50;99.90;;;;;;5114054;28;20211;-68
2022/08/02 02:30:47;;;;;;;10.00;5.83;;;14.50;99.90;;;;;;5114399;28;20640;-68
2022/08/02 02:33:19;;;;;;;8.80;5.60;;;14.40;99.90;;;;;;5114202;28;20211;-68
2022/08/02 02:35:49;;;;;;;6.97;4.90;;;14.40;99.90;;;;;;5114504;28;20223;-68
2022/08/02 02:38:20;;;;;;;9.00;5.13;;;14.40;99.90;;;;;;5114112;28;20207;-68
2022/08/02 02:40:48;;;;;;;8.90;5.47;;;14.40;99.90;;;;;;5114600;28;20224;-68
2022/08/02 02:43:17;;;;;;;12.23;5.57;;;14.40;99.90;;;;;;5114230;28;20199;-68
2022/08/02 02:45:45;;;;;;;9.10;5.73;;;14.30;99.90;;;;;;5114383;28;20195;-67
2022/08/02 02:48:14;;;;;;;7.37;5.73;;;14.30;99.90;;;;;;5114160;28;20203;-67
2022/08/02 02:50:43;;;;;;;7.63;5.40;;;14.30;99.90;;;;;;5114041;28;20227;-67
2022/08/02 02:53:12;;;;;;;11.07;6.57;;;14.30;99.90;;;;;;5114126;28;20203;-67
2022/08/02 02:55:40;;;;;;;9.80;6.00;;;14.20;99.90;;;;;;5113784;28;20709;-68
2022/08/02 02:58:07;;;;;;;10.47;6.33;;;14.20;99.90;;;;;;5113603;28;20237;-67
2022/08/02 03:03:20;;;;;;;10.57;6.40;;;14.20;99.90;;;;;;5114014;28;20276;-67
2022/08/02 03:05:48;;;;;;;13.53;6.77;;;14.20;99.90;;;;;;5113758;28;20200;-68
2022/08/02 03:08:15;;;;;;;13.10;7.00;;;14.20;99.90;;;;;;5113435;28;20215;-68
2022/08/02 03:10:43;;;;;;;15.50;8.10;;;14.10;99.90;;;;;;5113755;28;20227;-68
2022/08/02 03:13:10;;;;;;;13.67;7.47;;;14.10;99.90;;;;;;5113702;27;20721;-68
2022/08/02 03:15:38;;;;;;;10.87;7.87;;;14.10;99.90;;;;;;5113466;28;20223;-67
2022/08/02 03:18:06;;;;;;;12.17;8.13;;;14.10;99.90;;;;;;5113021;28;20219;-67
2022/08/02 03:20:33;;;;;;;11.83;7.20;;;14.10;99.90;;;;;;5113862;28;20230;-68
2022/08/02 03:23:01;;;;;;;20.07;8.10;;;14.20;99.90;;;;;;5113344;28;20215;-68
2022/08/02 03:25:27;;;;;;;12.90;7.67;;;14.20;99.90;;;;;;5113812;28;20199;-68
2022/08/02 03:27:54;;;;;;;16.90;8.43;;;14.20;99.90;;;;;;5113279;28;20204;-67
2022/08/02 03:30:23;;;;;;;14.53;7.60;;;14.20;99.90;;;;;;5113455;28;20249;-68
2022/08/02 03:32:50;;;;;;;12.20;8.40;;;14.20;99.90;;;;;;5113264;28;20217;-68
2022/08/02 03:35:19;;;;;;;14.60;7.90;;;14.20;99.90;;;;;;5113097;28;20226;-68
2022/08/02 03:37:48;;;;;;;12.00;7.73;;;14.30;99.90;;;;;;5113002;28;20207;-68
2022/08/02 03:40:17;;;;;;;14.70;8.67;;;14.30;99.90;;;;;;5113288;28;20227;-67
2022/08/02 03:42:45;;;;;;;12.43;8.10;;;14.30;99.90;;;;;;5113119;28;20627;-68
2022/08/02 03:45:13;;;;;;;13.17;8.63;;;14.30;99.90;;;;;;5112357;28;20203;-68
2022/08/02 03:47:41;;;;;;;16.67;8.53;;;14.30;99.90;;;;;;5112687;28;20260;-68
2022/08/02 03:50:11;;;;;;;14.13;8.40;;;14.30;99.90;;;;;;5112736;28;20219;-68
2022/08/02 03:52:40;;;;;;;12.93;8.83;;;14.30;99.90;;;;;;5113397;28;20286;-68
2022/08/02 03:55:07;;;;;;;17.63;10.43;;;14.30;99.90;;;;;;5112893;28;20281;-68
2022/08/02 03:57:37;;;;;;;25.80;12.73;;;14.30;99.90;;;;;;5112413;28;20207;-68
2022/08/02 04:00:05;;;;;;;13.63;9.50;;;14.30;99.90;;;;;;5112756;28;20219;-68
2022/08/02 04:02:31;;;;;;;14.33;8.50;;;14.40;99.90;;;;;;5112696;28;20685;-68
2022/08/02 04:04:58;;;;;;;16.90;9.13;;;14.40;99.90;;;;;;5112573;28;20666;-68
2022/08/02 04:07:25;;;;;;;17.43;9.47;;;14.40;99.90;;;;;;5112339;28;20675;-68
2022/08/02 04:09:52;;;;;;;17.83;8.47;;;14.40;99.90;;;;;;5112561;28;20248;-68
2022/08/02 04:12:18;;;;;;;16.47;8.43;;;14.40;99.90;;;;;;5112729;28;20203;-67
2022/08/02 04:14:46;;;;;;;16.17;10.10;;;14.50;99.90;;;;;;5112584;28;20256;-67
2022/08/02 04:17:17;;;;;;;16.83;9.37;;;14.90;99.90;;;;;;5111977;28;20211;-67
2022/08/02 04:19:47;;;;;;;15.40;9.73;;;15.20;99.90;;;;;;5112472;28;20215;-67
2022/08/02 04:22:17;;;;;;;13.67;8.70;;;15.40;99.90;;;;;;5112515;28;20200;-68
2022/08/02 04:24:49;;;;;;;12.13;6.60;;;15.60;99.90;;;;;;5112586;28;20265;-69
2022/08/02 04:27:17;;;;;;;12.33;6.70;;;15.70;99.90;;;;;;5111998;28;20642;-69
2022/08/02 04:29:45;;;;;;;9.57;5.63;;;15.80;99.90;;;;;;5112280;28;20245;-69
2022/08/02 04:32:12;;;;;;;11.90;5.33;;;15.90;99.90;;;;;;5112418;28;20204;-68
2022/08/02 04:34:39;;;;;;;8.27;4.97;;;16.00;99.90;;;;;;5112292;28;20751;-68
2022/08/02 04:37:06;;;;;;;7.63;6.03;;;16.00;99.90;;;;;;5111840;28;20717;-68
2022/08/02 04:39:34;;;;;;;8.50;4.83;;;16.10;99.90;;;;;;5112399;28;20208;-68
2022/08/02 04:42:00;;;;;;;6.97;4.97;;;16.10;99.90;;;;;;5112849;28;20239;-68
2022/08/02 04:44:27;;;;;;;11.50;5.73;;;16.10;99.90;;;;;;5112872;28;20199;-68
2022/08/02 04:46:57;;;;;;;10.17;5.50;;;16.20;99.90;;;;;;5112424;28;20204;-68
2022/08/02 04:49:23;;;;;;;14.70;5.57;;;16.20;99.90;;;;;;5112071;28;20669;-68
2022/08/02 04:51:50;;;;;;;8.60;5.87;;;16.30;99.90;;;;;;5112007;28;20223;-68
2022/08/02 04:54:17;;;;;;;10.50;5.97;;;16.20;99.90;;;;;;5112230;28;20260;-68
2022/08/02 04:56:43;;;;;;;8.80;5.90;;;16.30;99.90;;;;;;5115358;28;20735;-68
2022/08/02 04:59:11;;;;;;;13.43;6.80;;;16.30;99.90;;;;;;5116059;28;20211;-68
2022/08/02 05:01:38;;;;;;;7.83;6.30;;;16.40;99.90;;;;;;5116293;28;20315;-68
2022/08/02 05:04:06;;;;;;;8.93;6.00;;;16.30;99.90;;;;;;5116199;28;20615;-68
2022/08/02 05:06:32;;;;;;;12.60;6.53;;;16.30;99.90;;;;;;5115868;28;20249;-68
2022/08/02 05:08:59;;;;;;;8.60;5.93;;;16.40;99.90;;;;;;5116045;28;20203;-69
2022/08/02 05:11:26;;;;;;;12.37;6.13;;;16.30;99.90;;;;;;5115907;28;20701;-69
2022/08/02 05:13:53;;;;;;;9.43;6.57;;;16.30;99.90;;;;;;5116221;27;20203;-68
2022/08/02 05:16:19;;;;;;;9.77;6.67;;;16.30;99.90;;;;;;5115541;28;20227;-68
2022/08/02 05:18:46;;;;;;;10.40;6.63;;;16.20;99.90;;;;;;5115811;28;20700;-69
2022/08/02 05:21:14;;;;;;;8.83;6.37;;;16.20;99.90;;;;;;5115709;28;20220;-69
2022/08/02 05:23:41;;;;;;;7.33;6.03;;;16.20;99.90;;;;;;5115889;28;20261;-69
2022/08/02 05:26:07;;;;;;;12.23;6.40;;;16.30;99.90;;;;;;5115475;28;20203;-69
2022/08/02 05:28:34;;;;;;;11.40;6.70;;;16.30;99.90;;;;;;5115737;28;20211;-69
2022/08/02 05:31:01;;;;;;;13.57;6.93;;;16.30;99.90;;;;;;5116126;28;20227;-68
2022/08/02 05:33:28;;;;;;;13.43;6.37;;;16.20;99.90;;;;;;5116024;28;20666;-68
2022/08/02 05:35:55;;;;;;;11.83;7.13;;;16.30;99.90;;;;;;5115169;28;20675;-68
2022/08/02 05:38:23;;;;;;;11.20;6.07;;;16.30;99.90;;;;;;5115182;28;20230;-68
2022/08/02 05:40:49;;;;;;;7.07;6.37;;;16.40;99.90;;;;;;5115535;28;20250;-68
2022/08/02 05:43:16;;;;;;;7.30;6.00;;;16.40;99.90;;;;;;5115827;27;20203;-68
2022/08/02 05:45:43;;;;;;;13.33;6.30;;;16.50;99.90;;;;;;5115545;28;20196;-68
2022/08/02 05:48:09;;;;;;;12.50;6.67;;;16.60;99.90;;;;;;5115082;28;20208;-68
2022/08/02 05:50:39;;;;;;;10.37;6.47;;;16.70;99.90;;;;;;5115568;28;20590;-69
2022/08/02 05:53:17;;;;;;;11.23;5.80;;;16.80;99.90;;;;;;5115443;27;20211;-69
2022/08/02 05:55:51;;;;;;;12.97;5.83;;;16.90;99.90;;;;;;5115404;28;20215;-69
2022/08/02 05:58:24;;;;;;;11.13;6.20;;;17.00;99.90;;;;;;5115317;28;20229;-68
2022/08/02 06:00:55;;;;;;;7.30;5.43;;;17.10;99.90;;;;;;5115111;27;20228;-68
2022/08/02 06:03:24;;;;;;;8.93;5.43;;;17.30;99.90;;;;;;5115021;28;20208;-68
2022/08/02 06:05:57;;;;;;;8.63;5.50;;;17.40;99.90;;;;;;5115258;28;20219;-68
2022/08/02 06:08:31;;;;;;;9.53;5.73;;;17.50;99.90;;;;;;5114272;28;20266;-68
2022/08/02 06:11:01;;;;;;;7.57;5.23;;;17.60;99.90;;;;;;5115021;28;20223;-68
2022/08/02 06:13:29;;;;;;;8.10;5.40;;;17.70;99.90;;;;;;5114808;28;20249;-68
2022/08/02 06:15:58;;;;;;;10.00;5.23;;;17.80;99.90;;;;;;5114337;28;21115;-69
2022/08/02 06:18:26;;;;;;;7.97;5.63;;;17.80;99.90;;;;;;5114597;28;20214;-68
2022/08/02 06:20:55;;;;;;;10.17;4.63;;;17.90;99.90;;;;;;5114675;28;20219;-68
2022/08/02 06:23:23;;;;;;;8.73;5.70;;;18.00;99.90;;;;;;5114732;28;20273;-68
2022/08/02 06:25:51;;;;;;;8.53;5.37;;;18.10;99.90;;;;;;5114675;28;20207;-68
2022/08/02 06:28:19;;;;;;;7.80;5.00;;;18.20;99.90;;;;;;5114387;28;20298;-68
2022/08/02 06:30:46;;;;;;;8.23;5.47;;;18.20;99.90;;;;;;5114733;28;20224;-68
2022/08/02 06:33:13;;;;;;;11.17;5.53;;;18.30;99.90;;;;;;5114505;28;20231;-68
2022/08/02 06:35:45;;;;;;;6.43;5.30;;;18.40;99.10;;;;;;5114366;28;20295;-68
2022/08/02 06:38:18;;;;;;;10.47;5.60;;;18.50;95.50;;;;;;5114209;28;20639;-69
2022/08/02 06:40:52;;;;;;;14.90;5.30;;;18.50;78.10;;;;;;5114300;28;20226;-68
2022/08/02 06:43:28;;;;;;;10.40;5.87;;;18.70;69.20;;;;;;5114228;28;20260;-68
2022/08/02 06:45:54;;;;;;;6.90;5.27;;;18.70;60.40;;;;;;5114055;28;20207;-68
2022/08/02 06:48:21;;;;;;;9.87;5.57;;;18.80;45.90;;;;;;5114093;28;20219;-68
2022/08/02 06:50:48;;;;;;;7.43;5.07;;;18.90;33.60;;;;;;5114047;28;20223;-68
2022/08/02 06:53:15;;;;;;;8.00;4.80;;;18.90;33.50;;;;;;5114045;28;20207;-68
2022/08/02 06:55:41;;;;;;;6.00;4.40;;;19.00;25.20;;;;;;5114136;27;20711;-68
2022/08/02 06:58:08;;;;;;;7.27;4.73;;;19.10;11.80;;;;;;5113515;28;20252;-68
2022/08/02 07:00:36;;;;;;;9.13;5.07;;;19.10;1.00;;;;;;5114222;28;20224;-68
2022/08/02 07:03:04;;;;;;;5.30;4.50;;;19.20;9.20;;;;;;5113759;28;20203;-68
2022/08/02 07:05:31;;;;;;;5.83;4.60;;;19.30;1.00;;;;;;5113839;28;20204;-68
2022/08/02 07:07:58;;;;;;;8.10;4.63;;;19.40;5.10;;;;;;5113311;28;20200;-68
2022/08/02 07:10:25;;;;;;;8.37;5.00;;;19.40;1.00;;;;;;5113856;28;20223;-68
2022/08/02 07:12:51;;;;;;;7.17;4.57;;;19.50;1.00;;;;;;5113551;28;20229;-69
2022/08/02 07:15:18;;;;;;;6.13;3.50;;;19.60;1.00;;;;;;5113627;28;20673;-69
2022/08/02 07:17:46;;;;;;;8.30;4.23;;;19.70;1.00;;;;;;5112802;28;20228;-69
2022/08/02 07:20:13;;;;;;;9.83;4.57;;;19.90;1.00;;;;;;5113422;28;20253;-68
2022/08/02 07:22:40;;;;;;;5.50;4.13;;;20.00;1.00;;;;;;5113444;28;20203;-68
2022/08/02 07:25:08;;;;;;;8.53;4.77;;;20.00;1.00;;;;;;5113663;28;20200;-68
2022/08/02 07:27:35;;;;;;;7.87;4.17;;;20.10;1.00;;;;;;5113440;28;20204;-68
2022/08/02 07:30:03;;;;;;;7.53;4.67;;;20.20;1.00;;;;;;5113223;28;20641;-69
2022/08/02 07:32:31;;;;;;;6.83;4.30;;;20.20;1.00;;;;;;5113587;28;20203;-69
2022/08/02 07:35:00;;;;;;;7.17;4.13;;;20.40;1.00;;;;;;5113426;28;20617;-69
2022/08/02 07:37:29;;;;;;;4.93;3.70;;;20.50;1.00;;;;;;5113062;27;20247;-69
2022/08/02 07:39:56;;;;;;;5.83;3.90;;;20.60;1.00;;;;;;5113297;28;20207;-69
2022/08/02 07:42:23;;;;;;;8.60;4.27;;;20.80;1.00;;;;;;5113428;28;20204;-69
2022/08/02 07:44:50;;;;;;;8.13;4.10;;;20.90;1.00;;;;;;5113228;28;20207;-69
2022/08/02 07:47:17;;;;;;;9.07;3.40;;;21.00;1.00;;;;;;5112898;28;20199;-68
2022/08/02 07:49:44;;;;;;;7.23;3.33;;;21.20;99.90;;;;;;5113014;28;20264;-68
2022/08/02 07:52:12;;;;;;;5.60;3.10;;;21.30;1.00;;;;;;5113194;28;20204;-69
2022/08/02 07:54:39;;;;;;;8.43;3.63;;;21.50;1.00;;;;;;5112946;28;20208;-69
2022/08/02 07:57:06;;;;;;;8.47;3.27;;;21.60;19.40;;;;;;5112676;28;20220;-69
2022/08/02 07:59:32;;;;;;;5.70;2.80;;;21.70;99.90;;;;;;5112757;28;20207;-68
2022/08/02 08:01:59;;;;;;;6.03;2.83;;;21.80;35.40;;;;;;5112670;28;20223;-68
2022/08/02 08:04:26;;;;;;;3.73;2.70;;;21.90;1.00;;;;;;5112857;28;20234;-68
2022/08/02 08:06:53;;;;;;;5.60;2.77;;;21.90;1.00;;;;;;5112686;28;20333;-68
2022/08/02 08:09:21;;;;;;;5.07;2.30;;;22.00;1.00;;;;;;5112923;28;20266;-68
2022/08/02 08:11:48;;;;;;;3.47;2.27;;;22.10;1.00;;;;;;5113747;28;20245;-69
2022/08/02 08:14:15;;;;;;;2.97;2.30;;;22.40;99.90;;;;;;5114798;28;20729;-69
2022/08/02 08:16:42;;;;;;;6.17;2.60;;;22.50;99.90;;;;;;5113588;28;20769;-68
2022/08/02 08:19:08;;;;;;;2.80;2.43;;;22.70;99.90;;;;;;5112534;28;20222;-68
2022/08/02 08:21:35;;;;;;;4.43;2.37;;;22.80;99.90;;;;;;5112392;28;20656;-68
2022/08/02 08:24:03;;;;;;;6.20;2.20;;;22.90;99.90;;;;;;5111880;28;20261;-69
2022/08/02 08:26:31;;;;;;;5.40;1.77;;;23.10;99.90;;;;;;5112058;28;20196;-68
2022/08/02 08:28:59;;;;;;;5.10;1.83;;;23.20;99.90;;;;;;5112262;28;20257;-68
2022/08/02 08:31:26;;;;;;;3.27;1.90;;;23.40;99.90;;;;;;5111902;28;20800;-69
2022/08/02 08:33:52;;;;;;;3.07;1.83;;;23.60;99.90;;;;;;5112532;28;20208;-68
2022/08/02 08:36:20;;;;;;;3.23;1.97;;;23.70;99.90;;;;;;5111991;28;20261;-68
2022/08/02 08:38:46;;;;;;;4.40;1.73;;;23.80;99.90;;;;;;5112391;28;20203;-68
2022/08/02 08:41:15;;;;;;;1.50;1.37;;;23.90;99.90;;;;;;5112268;28;20751;-68
2022/08/02 08:43:43;;;;;;;2.10;1.40;;;23.90;99.90;;;;;;5112143;28;20199;-68
2022/08/02 08:46:11;;;;;;;2.00;1.40;;;23.90;99.90;;;;;;5112080;28;20344;-68
2022/08/02 08:48:43;;;;;;;2.03;1.43;;;23.80;99.90;;;;;;5112421;28;20298;-69
2022/08/02 08:51:12;;;;;;;2.13;1.40;;;24.10;99.90;;;;;;5112232;28;20280;-68
2022/08/02 08:53:42;;;;;;;1.73;1.37;;;24.00;99.90;;;;;;5112356;28;20673;-68
2022/08/02 08:56:11;;;;;;;2.60;1.67;;;24.00;99.90;;;;;;5111697;28;20248;-68
2022/08/02 08:58:38;;;;;;;5.87;1.40;;;24.00;99.90;;;;;;5111919;28;20230;-69
2022/08/02 09:01:06;;;;;;;3.50;2.13;;;24.00;99.90;;;;;;5112184;28;20296;-69
2022/08/02 09:03:33;;;;;;;4.57;2.10;;;24.10;99.90;;;;;;5112133;28;20214;-69
2022/08/02 09:06:00;;;;;;;3.97;1.83;;;24.20;99.90;;;;;;5111615;28;20272;-68
2022/08/02 09:08:26;;;;;;;3.47;2.50;;;24.20;99.90;;;;;;5111848;28;20200;-68
2022/08/02 09:10:54;;;;;;;3.60;2.13;;;24.30;99.90;;;;;;5111694;28;20231;-68
2022/08/02 09:13:22;;;;;;;2.57;1.93;;;24.30;99.90;;;;;;5112084;28;20204;-69
2022/08/02 09:15:54;;;;;;;2.53;2.03;;;24.50;99.90;;;;;;5111963;28;20203;-68
2022/08/02 09:18:30;;;;;;;5.17;2.20;;;24.40;99.90;;;;;;5111985;28;20238;-68
2022/08/02 09:20:59;;;;;;;4.17;2.33;;;24.50;99.90;;;;;;5111799;28;20276;-69
2022/08/02 09:23:27;;;;;;;2.77;2.00;;;24.40;99.90;;;;;;5112078;28;20264;-68
2022/08/02 09:26:01;;;;;;;2.77;2.20;;;24.50;99.90;;;;;;5111663;28;20628;-69
2022/08/02 09:28:29;;;;;;;5.57;2.53;;;24.70;99.90;;;;;;5111951;28;20203;-67
2022/08/02 09:30:57;;;;;;;3.13;1.90;;;24.80;99.90;;;;;;5111603;28;20713;-69
2022/08/02 09:33:27;;;;;;;2.50;1.90;;;24.90;99.90;;;;;;5111847;28;20315;-69
2022/08/02 09:36:00;;;;;;;2.70;2.13;;;24.90;99.90;;;;;;5111202;28;20207;-69
2022/08/02 09:38:28;;;;;;;4.23;1.83;;;25.00;99.90;;;;;;5111618;28;20220;-69
2022/08/02 09:40:54;;;;;;;3.53;1.80;;;25.00;99.90;;;;;;5111523;28;20219;-69
2022/08/02 09:43:21;;;;;;;2.47;2.00;;;25.10;99.90;;;;;;5114725;28;20200;-69
2022/08/02 09:45:48;;;;;;;6.90;2.20;;;25.20;99.90;;;;;;5115606;27;20203;-68
2022/08/02 09:48:15;;;;;;;2.57;2.10;;;25.40;99.90;;;;;;5114875;28;20561;-69
2022/08/02 09:50:45;;;;;;;3.70;2.40;;;25.60;99.90;;;;;;5115362;28;20633;-69
2022/08/02 09:53:12;;;;;;;4.57;2.30;;;25.70;99.90;;;;;;5115039;28;20211;-69
2022/08/02 09:55:40;;;;;;;3.40;2.47;;;25.80;99.90;;;;;;5115200;28;20765;-68
2022/08/02 09:58:18;;;;;;;2.83;2.20;;;26.00;99.90;;;;;;5114830;28;20239;-68
2022/08/02 10:00:53;;;;;;;4.23;2.40;;;25.90;99.90;;;;;;5114963;28;20774;-68
2022/08/02 10:03:20;;;;;;;3.97;2.30;;;26.00;99.90;;;;;;5115209;28;20203;-68
2022/08/02 10:05:50;;;;;;;3.43;2.53;;;26.00;99.90;;;;;;5115240;28;20204;-69
2022/08/02 10:08:17;;;;;;;4.20;2.73;;;25.90;99.90;;;;;;5115087;28;20195;-69
2022/08/02 10:10:45;;;;;;;4.67;2.50;;;25.90;99.90;;;;;;5114877;28;20288;-68
2022/08/02 10:13:12;;;;;;;4.23;2.70;;;25.60;99.90;;;;;;5114686;28;20208;-69
2022/08/02 10:15:39;;;;;;;5.07;2.90;;;25.70;99.90;;;;;;5115078;28;20278;-69
2022/08/02 10:18:07;;;;;;;2.90;2.50;;;25.50;99.90;;;;;;5114416;28;20219;-69
2022/08/02 10:20:40;;;;;;;3.00;2.70;;;25.70;99.90;;;;;;5114794;28;20219;-69
2022/08/02 10:23:10;;;;;;;2.40;2.20;;;25.70;99.90;;;;;;5114609;28;20208;-69
2022/08/02 10:25:38;;;;;;;3.67;2.60;;;25.90;99.90;;;;;;5114709;28;20208;-69
2022/08/02 10:28:06;;;;;;;3.47;2.37;;;26.00;99.90;;;;;;5114614;28;20212;-69
2022/08/02 10:30:36;;;;;;;3.30;2.40;;;25.80;99.90;;;;;;5114913;28;20268;-69
2022/08/02 10:33:04;;;;;;;4.53;2.30;;;25.80;99.90;;;;;;5114411;28;20734;-69
2022/08/02 10:35:35;;;;;;;4.80;2.90;;;26.10;99.90;;;;;;5114506;28;20207;-69
2022/08/02 10:38:06;;;;;;;3.10;2.80;;;25.90;99.90;;;;;;5113725;28;20223;-69
2022/08/02 10:40:47;;;;;;;3.47;2.50;;;25.90;99.90;;;;;;5114645;28;20235;-70
2022/08/02 10:43:44;;;;;;;3.83;2.70;;;26.10;99.90;;;;;;5114482;28;20233;-69
2022/08/02 10:46:31;;;;;;;4.07;3.20;;;26.10;99.90;;;;;;5115045;28;20204;-69
2022/08/02 10:49:09;;;;;;;2.40;2.20;;;25.80;99.90;;;;;;5114189;28;20661;-69
2022/08/02 10:51:55;;;;;;;5.27;2.53;;;26.00;99.90;;;;;;5114339;28;20223;-69
2022/08/02 10:54:24;;;;;;;4.73;2.70;;;26.10;99.90;;;;;;5113616;28;20222;-69
2022/08/02 10:56:54;;;;;;;5.83;3.00;;;26.20;99.90;;;;;;5113766;28;20252;-69
2022/08/02 10:59:25;;;;;;;3.83;2.90;;;26.40;99.90;;;;;;5114244;28;20214;-69
2022/08/02 11:01:59;;;;;;;4.40;3.03;;;26.60;99.90;;;;;;5113882;28;20788;-69
2022/08/02 11:04:27;;;;;;;5.83;2.93;;;26.60;99.90;;;;;;5113958;28;20207;-69
2022/08/02 11:07:12;;;;;;;4.10;3.07;;;26.40;99.90;;;;;;5113750;28;20637;-69
2022/08/02 11:09:40;;;;;;;5.43;3.00;;;26.30;99.90;;;;;;5113535;28;20203;-69
2022/08/02 11:12:10;;;;;;;5.13;3.27;;;26.00;99.90;;;;;;5113650;28;20206;-69
2022/08/02 11:14:38;;;;;;;4.87;3.40;;;26.10;99.90;;;;;;5113677;28;20292;-69
2022/08/02 11:17:15;;;;;;;3.63;3.27;;;26.20;99.90;;;;;;5112994;28;20207;-69
2022/08/02 11:20:17;;;;;;;8.60;3.30;;;26.50;99.90;;;;;;5113560;28;20706;-69
2022/08/02 11:22:45;;;;;;;3.43;3.13;;;26.40;99.90;;;;;;5113451;28;20246;-69
2022/08/02 11:25:32;;;;;;;3.77;2.90;;;26.40;99.90;;;;;;5113478;28;20208;-66
2022/08/02 11:28:08;;;;;;;6.10;3.20;;;26.60;99.90;;;;;;5113067;28;20206;-66
2022/08/02 11:30:36;;;;;;;5.07;3.57;;;26.70;99.90;;;;;;5113178;28;20227;-66
2022/08/02 11:33:03;;;;;;;6.37;3.43;;;27.00;99.90;;;;;;5113489;28;20243;-66
2022/08/02 11:35:34;;;;;;;3.83;3.17;;;27.00;99.90;;;;;;5113456;28;20768;-69
2022/08/02 11:38:14;;;;;;;5.70;3.50;;;27.10;99.90;;;;;;5112697;28;20743;-69
2022/08/02 11:40:41;;;;;;;4.63;3.07;;;27.00;99.90;;;;;;5113030;28;20310;-69
2022/08/02 11:43:18;;;;;;;4.13;2.30;;;27.00;99.90;;;;;;5113335;28;20264;-69
2022/08/02 11:45:45;;;;;;;4.77;3.03;;;27.10;99.90;;;;;;5112978;28;20626;-66
2022/08/02 11:48:12;;;;;;;3.50;2.50;;;27.40;99.90;;;;;;5112964;28;20210;-67
2022/08/02 11:50:39;;;;;;;2.53;2.30;;;27.50;99.90;;;;;;5112818;28;20647;-67
2022/08/02 11:53:13;;;;;;;3.37;2.40;;;27.60;99.90;;;;;;5112939;28;20207;-66
2022/08/02 11:55:40;;;;;;;2.50;2.27;;;27.30;99.90;;;;;;5112864;28;20621;-66
2022/08/02 11:58:10;;;;;;;4.90;2.60;;;27.40;99.90;;;;;;5112756;28;20255;-66
2022/08/02 12:00:38;;;;;;;3.47;2.70;;;27.40;99.90;;;;;;5112818;28;20228;-66
2022/08/02 12:03:07;;;;;;;4.23;2.50;;;27.20;99.90;;;;;;5112592;28;20238;-65
2022/08/02 12:05:34;;;;;;;5.10;2.47;;;27.20;99.90;;;;;;5112034;28;20203;-65
2022/08/02 12:08:00;;;;;;;3.77;2.23;;;27.00;99.90;;;;;;5112232;28;20932;-65
2022/08/02 12:10:27;;;;;;;2.97;1.90;;;27.10;99.90;;;;;;5112531;28;20603;-66
2022/08/02 12:12:56;;;;;;;2.13;1.80;;;26.90;99.90;;;;;;5112733;28;20284;-65
2022/08/02 12:15:33;;;;;;;3.23;1.80;;;27.10;99.90;;;;;;5112482;28;20851;-65
2022/08/02 12:20:46;;;;;;;4.33;2.00;;;27.40;99.90;;;;;;5112142;28;20701;-65
2022/08/02 12:23:13;;;;;;;4.07;1.70;;;27.20;99.90;;;;;;5112700;28;20208;-66
2022/08/02 12:25:40;;;;;;;2.00;1.90;;;27.30;99.90;;;;;;5112363;28;20669;-66
2022/08/02 12:28:17;;;;;;;2.93;1.90;;;27.40;99.90;;;;;;5112201;28;20211;-66
2022/08/02 12:30:53;;;;;;;5.87;1.70;;;27.20;99.90;;;;;;5112315;28;20223;-66
2022/08/02 12:33:22;;;;;;;4.00;2.13;;;27.30;99.90;;;;;;5112699;28;20210;-66
2022/08/02 12:35:50;;;;;;;3.07;2.00;;;27.30;99.90;;;;;;5112400;28;20207;-65
2022/08/02 12:38:16;;;;;;;3.00;1.87;;;27.40;99.90;;;;;;5109973;28;20705;-65
2022/08/02 12:40:44;;;;;;;3.97;1.93;;;27.40;99.90;;;;;;5110941;28;20224;-66
2022/08/02 12:43:18;;;;;;;4.30;1.93;;;27.50;99.90;;;;;;5111866;28;20214;-63
2022/08/02 12:45:47;;;;;;;3.53;2.00;;;27.50;99.90;;;;;;5112078;28;20211;-66
2022/08/02 12:48:14;;;;;;;4.00;2.17;;;27.50;99.90;;;;;;5111899;28;20250;-67
2022/08/02 12:50:42;;;;;;;6.27;3.87;;;27.60;99.90;;;;;;5111978;28;20227;-65
2022/08/02 12:53:12;;;;;;;3.93;2.20;;;27.60;99.90;;;;;;5111603;28;20627;-63
2022/08/02 12:55:48;;;;;;;2.83;1.80;;;27.80;99.90;;;;;;5111999;28;20204;-63
2022/08/02 12:58:15;;;;;;;2.57;1.70;;;27.80;99.90;;;;;;5111543;28;20227;-64
2022/08/02 13:00:42;;;;;;;6.43;2.87;;;27.70;99.90;;;;;;5111924;28;20245;-64